PWSweather.com
Personal Weather Stations
Station Observations
IONTARIO88
Lincoln, ON L0R

Lincoln, ON L0R

Lat: 43.1763563, Lon: -79.4719525

Elevation: 297

Station Type: Davis Vantage Pro 2 Plus

http://www.beamsvillewx.ca

High Low Average
Temperature 50.4°F10.2°C 45.5°F7.5°C 48.3°F9.1°C
Dew Point 44.3°F6.8°C 40.3°F4.6°C 41.9°F5.5°C
Winds 14.0 mph 22.5 kmh 3.0 mph 4.8 kmh 10.0 mph NW16.1 kmh NW
Wind Gusts 32.0 mph51.5 kmh 8.0 mph12.9 kmh 20.0 mph32.2 kmh
Humidity 90% 72% 79%
Pressure 29.83 in1010.2 mb 29.43 in996.6 mb -
Precipitation 0.01 in0.3 mm - -
Hour Temp Dew Point Humidity Winds Wind Gusts Pressure Precip Precip Rate Daily Precip Total
12:00 AM 47.5°F8.6°C 43.2°F6.2°C 85% 6.0 mph W9.7 kmh W 14.0 mph22.5 kmh 29.43 in996.6 mb 0.00 in0.0 mm 0.00 in0.0 mm 0.00 in0.0 mm
12:15 AM 47.3°F8.5°C 43.3°F6.3°C 86% 5.0 mph WSW8.0 kmh WSW 15.0 mph24.1 kmh 29.43 in996.6 mb 0.00 in0.0 mm 0.00 in0.0 mm 0.00 in0.0 mm
12:30 AM 46.9°F8.3°C 43.6°F6.4°C 88% 5.0 mph WSW8.0 kmh WSW 12.0 mph19.3 kmh 29.43 in996.6 mb 0.00 in0.0 mm 0.00 in0.0 mm 0.00 in0.0 mm
12:45 AM 47.1°F8.4°C 43.7°F6.5°C 88% 6.0 mph W9.7 kmh W 12.0 mph19.3 kmh 29.43 in996.6 mb 0.00 in0.0 mm 0.00 in0.0 mm 0.00 in0.0 mm
01:00 AM 47.5°F8.6°C 43.8°F6.6°C 87% 6.0 mph W9.7 kmh W 13.0 mph20.9 kmh 29.43 in996.6 mb 0.00 in0.0 mm 0.00 in0.0 mm 0.00 in0.0 mm
01:15 AM 47.7°F8.7°C 43.7°F6.5°C 86% 7.0 mph W11.3 kmh W 14.0 mph22.5 kmh 29.43 in996.6 mb 0.00 in0.0 mm 0.00 in0.0 mm 0.00 in0.0 mm
01:30 AM 47.8°F8.8°C 43.9°F6.6°C 86% 9.0 mph W14.5 kmh W 20.0 mph32.2 kmh 29.43 in996.6 mb 0.00 in0.0 mm 0.00 in0.0 mm 0.00 in0.0 mm
01:45 AM 47.8°F8.8°C 43.5°F6.4°C 85% 8.0 mph W12.9 kmh W 15.0 mph24.1 kmh 29.43 in996.6 mb 0.00 in0.0 mm 0.00 in0.0 mm 0.00 in0.0 mm
02:00 AM 48.0°F8.9°C 43.4°F6.3°C 84% 9.0 mph W14.5 kmh W 18.0 mph29.0 kmh 29.43 in996.6 mb 0.00 in0.0 mm 0.00 in0.0 mm 0.00 in0.0 mm
02:15 AM 48.4°F9.1°C 43.8°F6.6°C 84% 8.0 mph WNW12.9 kmh WNW 21.0 mph33.8 kmh 29.43 in996.6 mb 0.00 in0.0 mm 0.00 in0.0 mm 0.00 in0.0 mm
02:30 AM 48.0°F8.9°C 43.1°F6.2°C 83% 8.0 mph W12.9 kmh W 15.0 mph24.1 kmh 29.44 in997.0 mb 0.00 in0.0 mm 0.00 in0.0 mm 0.00 in0.0 mm
02:45 AM 47.7°F8.7°C 42.4°F5.8°C 82% 11.0 mph WNW17.7 kmh WNW 21.0 mph33.8 kmh 29.44 in997.0 mb 0.00 in0.0 mm 0.00 in0.0 mm 0.00 in0.0 mm
03:00 AM 47.5°F8.6°C 41.9°F5.5°C 81% 9.0 mph W14.5 kmh W 19.0 mph30.6 kmh 29.45 in997.3 mb 0.00 in0.0 mm 0.00 in0.0 mm 0.00 in0.0 mm
03:15 AM 47.3°F8.5°C 42.1°F5.6°C 82% 10.0 mph WNW16.1 kmh WNW 22.0 mph35.4 kmh 29.45 in997.3 mb 0.00 in0.0 mm 0.00 in0.0 mm 0.00 in0.0 mm
03:30 AM 46.9°F8.3°C 41.7°F5.4°C 82% 8.0 mph WNW12.9 kmh WNW 17.0 mph27.4 kmh 29.45 in997.3 mb 0.00 in0.0 mm 0.00 in0.0 mm 0.00 in0.0 mm
03:45 AM 46.6°F8.1°C 42.0°F5.6°C 84% 9.0 mph WNW14.5 kmh WNW 20.0 mph32.2 kmh 29.45 in997.3 mb 0.00 in0.0 mm 0.00 in0.0 mm 0.00 in0.0 mm
04:00 AM 45.9°F7.7°C 42.2°F5.7°C 87% 7.0 mph WNW11.3 kmh WNW 13.0 mph20.9 kmh 29.45 in997.3 mb 0.01 in0.3 mm 0.01 in0.3 mm 0.01 in0.3 mm
04:15 AM 45.7°F7.6°C 42.6°F5.9°C 89% 7.0 mph W11.3 kmh W 14.0 mph22.5 kmh 29.44 in997.0 mb 0.01 in0.3 mm 0.00 in0.0 mm 0.01 in0.3 mm
04:30 AM 45.5°F7.5°C 42.4°F5.8°C 89% 6.0 mph W9.7 kmh W 12.0 mph19.3 kmh 29.45 in997.3 mb 0.01 in0.3 mm 0.00 in0.0 mm 0.01 in0.3 mm
04:45 AM 46.2°F7.9°C 43.4°F6.3°C 90% 8.0 mph WNW12.9 kmh WNW 19.0 mph30.6 kmh 29.45 in997.3 mb 0.01 in0.3 mm 0.00 in0.0 mm 0.01 in0.3 mm
05:00 AM 46.9°F8.3°C 43.6°F6.4°C 88% 8.0 mph WNW12.9 kmh WNW 17.0 mph27.4 kmh 29.45 in997.3 mb 0.00 in0.0 mm 0.00 in0.0 mm 0.01 in0.3 mm
05:15 AM 47.7°F8.7°C 44.3°F6.8°C 88% 10.0 mph NW16.1 kmh NW 22.0 mph35.4 kmh 29.45 in997.3 mb 0.00 in0.0 mm 0.00 in0.0 mm 0.01 in0.3 mm
05:30 AM 48.0°F8.9°C 44.0°F6.7°C 86% 11.0 mph NW17.7 kmh NW 23.0 mph37.0 kmh 29.47 in998.0 mb 0.00 in0.0 mm 0.00 in0.0 mm 0.01 in0.3 mm
05:45 AM 48.0°F8.9°C 43.4°F6.3°C 84% 12.0 mph NW19.3 kmh NW 22.0 mph35.4 kmh 29.48 in998.3 mb 0.00 in0.0 mm 0.00 in0.0 mm 0.01 in0.3 mm
06:00 AM 47.8°F8.8°C 42.6°F5.9°C 82% 13.0 mph NW20.9 kmh NW 23.0 mph37.0 kmh 29.48 in998.3 mb 0.00 in0.0 mm 0.00 in0.0 mm 0.01 in0.3 mm
06:15 AM 47.8°F8.8°C 42.6°F5.9°C 82% 11.0 mph NW17.7 kmh NW 26.0 mph41.8 kmh 29.49 in998.6 mb 0.00 in0.0 mm 0.00 in0.0 mm 0.01 in0.3 mm
06:30 AM 47.8°F8.8°C 42.6°F5.9°C 82% 11.0 mph NW17.7 kmh NW 23.0 mph37.0 kmh 29.49 in998.6 mb 0.00 in0.0 mm 0.00 in0.0 mm 0.01 in0.3 mm
06:45 AM 47.8°F8.8°C 42.3°F5.7°C 81% 11.0 mph NW17.7 kmh NW 24.0 mph38.6 kmh 29.50 in999.0 mb 0.00 in0.0 mm 0.00 in0.0 mm 0.01 in0.3 mm
07:00 AM 47.8°F8.8°C 42.3°F5.7°C 81% 11.0 mph NW17.7 kmh NW 21.0 mph33.8 kmh 29.50 in999.0 mb 0.00 in0.0 mm 0.00 in0.0 mm 0.01 in0.3 mm
07:15 AM 47.8°F8.8°C 42.0°F5.6°C 80% 11.0 mph NW17.7 kmh NW 18.0 mph29.0 kmh 29.51 in999.3 mb 0.00 in0.0 mm 0.00 in0.0 mm 0.01 in0.3 mm
07:30 AM 47.8°F8.8°C 41.6°F5.3°C 79% 12.0 mph NW19.3 kmh NW 23.0 mph37.0 kmh 29.51 in999.3 mb 0.00 in0.0 mm 0.00 in0.0 mm 0.01 in0.3 mm
07:45 AM 47.8°F8.8°C 41.3°F5.2°C 78% 13.0 mph NW20.9 kmh NW 25.0 mph40.2 kmh 29.51 in999.3 mb 0.00 in0.0 mm 0.00 in0.0 mm 0.01 in0.3 mm
08:00 AM 47.8°F8.8°C 41.3°F5.2°C 78% 13.0 mph NW20.9 kmh NW 25.0 mph40.2 kmh 29.52 in999.7 mb 0.00 in0.0 mm 0.00 in0.0 mm 0.01 in0.3 mm
08:15 AM 48.0°F8.9°C 41.8°F5.4°C 79% 12.0 mph NW19.3 kmh NW 24.0 mph38.6 kmh 29.53 in1000.0 mb 0.00 in0.0 mm 0.00 in0.0 mm 0.01 in0.3 mm
08:30 AM 48.2°F9.0°C 42.0°F5.6°C 79% 13.0 mph NW20.9 kmh NW 23.0 mph37.0 kmh 29.54 in1000.3 mb 0.00 in0.0 mm 0.00 in0.0 mm 0.01 in0.3 mm
08:45 AM 48.0°F8.9°C 42.1°F5.6°C 80% 12.0 mph WNW19.3 kmh WNW 23.0 mph37.0 kmh 29.54 in1000.3 mb 0.00 in0.0 mm 0.00 in0.0 mm 0.01 in0.3 mm
09:00 AM 48.0°F8.9°C 42.1°F5.6°C 80% 12.0 mph NW19.3 kmh NW 22.0 mph35.4 kmh 29.55 in1000.7 mb 0.00 in0.0 mm 0.00 in0.0 mm 0.01 in0.3 mm
09:15 AM 48.2°F9.0°C 42.3°F5.7°C 80% 12.0 mph NW19.3 kmh NW 23.0 mph37.0 kmh 29.55 in1000.7 mb 0.00 in0.0 mm 0.00 in0.0 mm 0.01 in0.3 mm
09:30 AM 48.4°F9.1°C 42.2°F5.7°C 79% 12.0 mph NW19.3 kmh NW 28.0 mph45.1 kmh 29.55 in1000.7 mb 0.00 in0.0 mm 0.00 in0.0 mm 0.01 in0.3 mm
09:45 AM 48.6°F9.2°C 42.3°F5.7°C 79% 11.0 mph NW17.7 kmh NW 22.0 mph35.4 kmh 29.55 in1000.7 mb 0.00 in0.0 mm 0.00 in0.0 mm 0.01 in0.3 mm
10:00 AM 48.7°F9.3°C 42.5°F5.8°C 79% 10.0 mph NW16.1 kmh NW 22.0 mph35.4 kmh 29.56 in1001.0 mb 0.00 in0.0 mm 0.00 in0.0 mm 0.01 in0.3 mm
10:15 AM 48.6°F9.2°C 42.0°F5.6°C 78% 11.0 mph NW17.7 kmh NW 24.0 mph38.6 kmh 29.56 in1001.0 mb 0.00 in0.0 mm 0.00 in0.0 mm 0.01 in0.3 mm
10:30 AM 48.7°F9.3°C 42.2°F5.7°C 78% 9.0 mph NW14.5 kmh NW 21.0 mph33.8 kmh 29.56 in1001.0 mb 0.00 in0.0 mm 0.00 in0.0 mm 0.01 in0.3 mm
10:45 AM 48.9°F9.4°C 42.0°F5.6°C 77% 11.0 mph NW17.7 kmh NW 22.0 mph35.4 kmh 29.57 in1001.4 mb 0.00 in0.0 mm 0.00 in0.0 mm 0.01 in0.3 mm
11:00 AM 49.3°F9.6°C 42.0°F5.6°C 76% 12.0 mph NW19.3 kmh NW 24.0 mph38.6 kmh 29.57 in1001.4 mb 0.00 in0.0 mm 0.00 in0.0 mm 0.01 in0.3 mm
11:15 AM 49.5°F9.7°C 41.9°F5.5°C 75% 14.0 mph NW22.5 kmh NW 26.0 mph41.8 kmh 29.57 in1001.4 mb 0.00 in0.0 mm 0.00 in0.0 mm 0.01 in0.3 mm
11:30 AM 49.6°F9.8°C 42.0°F5.6°C 75% 12.0 mph NW19.3 kmh NW 27.0 mph43.5 kmh 29.59 in1002.0 mb 0.00 in0.0 mm 0.00 in0.0 mm 0.01 in0.3 mm
11:45 AM 49.8°F9.9°C 42.2°F5.7°C 75% 11.0 mph NW17.7 kmh NW 24.0 mph38.6 kmh 29.59 in1002.0 mb 0.00 in0.0 mm 0.00 in0.0 mm 0.01 in0.3 mm
12:00 PM 50.2°F10.1°C 43.6°F6.4°C 78% 10.0 mph NW16.1 kmh NW 24.0 mph38.6 kmh 29.60 in1002.4 mb 0.00 in0.0 mm 0.00 in0.0 mm 0.01 in0.3 mm
12:15 PM 49.8°F9.9°C 42.6°F5.9°C 76% 10.0 mph NW16.1 kmh NW 20.0 mph32.2 kmh 29.61 in1002.7 mb 0.00 in0.0 mm 0.00 in0.0 mm 0.01 in0.3 mm
12:30 PM 49.6°F9.8°C 42.4°F5.8°C 76% 10.0 mph NW16.1 kmh NW 20.0 mph32.2 kmh 29.61 in1002.7 mb 0.00 in0.0 mm 0.00 in0.0 mm 0.01 in0.3 mm
12:45 PM 50.0°F10.0°C 42.4°F5.8°C 75% 11.0 mph NW17.7 kmh NW 22.0 mph35.4 kmh 29.61 in1002.7 mb 0.00 in0.0 mm 0.00 in0.0 mm 0.01 in0.3 mm
01:00 PM 50.4°F10.2°C 42.4°F5.8°C 74% 13.0 mph NW20.9 kmh NW 32.0 mph51.5 kmh 29.62 in1003.0 mb 0.00 in0.0 mm 0.00 in0.0 mm 0.01 in0.3 mm
01:15 PM 50.4°F10.2°C 42.0°F5.6°C 73% 11.0 mph NW17.7 kmh NW 22.0 mph35.4 kmh 29.62 in1003.0 mb 0.00 in0.0 mm 0.00 in0.0 mm 0.01 in0.3 mm
01:30 PM 50.2°F10.1°C 41.5°F5.3°C 72% 12.0 mph NW19.3 kmh NW 24.0 mph38.6 kmh 29.64 in1003.7 mb 0.00 in0.0 mm 0.00 in0.0 mm 0.01 in0.3 mm
01:45 PM 50.2°F10.1°C 41.9°F5.5°C 73% 10.0 mph NW16.1 kmh NW 23.0 mph37.0 kmh 29.63 in1003.4 mb 0.00 in0.0 mm 0.00 in0.0 mm 0.01 in0.3 mm
02:00 PM 50.4°F10.2°C 42.0°F5.6°C 73% 11.0 mph NW17.7 kmh NW 25.0 mph40.2 kmh 29.64 in1003.7 mb 0.00 in0.0 mm 0.00 in0.0 mm 0.01 in0.3 mm
02:15 PM 50.0°F10.0°C 41.7°F5.4°C 73% 12.0 mph NW19.3 kmh NW 23.0 mph37.0 kmh 29.64 in1003.7 mb 0.00 in0.0 mm 0.00 in0.0 mm 0.01 in0.3 mm
02:30 PM 50.4°F10.2°C 42.0°F5.6°C 73% 11.0 mph NW17.7 kmh NW 24.0 mph38.6 kmh 29.64 in1003.7 mb 0.00 in0.0 mm 0.00 in0.0 mm 0.01 in0.3 mm
02:45 PM 50.4°F10.2°C 42.0°F5.6°C 73% 12.0 mph NW19.3 kmh NW 24.0 mph38.6 kmh 29.64 in1003.7 mb 0.00 in0.0 mm 0.00 in0.0 mm 0.01 in0.3 mm
03:00 PM 49.6°F9.8°C 41.3°F5.2°C 73% 12.0 mph NW19.3 kmh NW 24.0 mph38.6 kmh 29.65 in1004.1 mb 0.00 in0.0 mm 0.00 in0.0 mm 0.01 in0.3 mm
03:15 PM 49.5°F9.7°C 41.9°F5.5°C 75% 11.0 mph NW17.7 kmh NW 23.0 mph37.0 kmh 29.66 in1004.4 mb 0.00 in0.0 mm 0.00 in0.0 mm 0.01 in0.3 mm
03:30 PM 49.3°F9.6°C 42.0°F5.6°C 76% 10.0 mph NW16.1 kmh NW 19.0 mph30.6 kmh 29.66 in1004.4 mb 0.00 in0.0 mm 0.00 in0.0 mm 0.01 in0.3 mm
03:45 PM 49.1°F9.5°C 41.5°F5.3°C 75% 10.0 mph WNW16.1 kmh WNW 17.0 mph27.4 kmh 29.66 in1004.4 mb 0.00 in0.0 mm 0.00 in0.0 mm 0.01 in0.3 mm
04:00 PM 48.9°F9.4°C 41.7°F5.4°C 76% 11.0 mph NW17.7 kmh NW 24.0 mph38.6 kmh 29.66 in1004.4 mb 0.00 in0.0 mm 0.00 in0.0 mm 0.01 in0.3 mm
04:15 PM 48.6°F9.2°C 41.3°F5.2°C 76% 12.0 mph WNW19.3 kmh WNW 21.0 mph33.8 kmh 29.67 in1004.7 mb 0.00 in0.0 mm 0.00 in0.0 mm 0.01 in0.3 mm
04:30 PM 48.6°F9.2°C 42.0°F5.6°C 78% 10.0 mph NW16.1 kmh NW 21.0 mph33.8 kmh 29.68 in1005.1 mb 0.00 in0.0 mm 0.00 in0.0 mm 0.01 in0.3 mm
04:45 PM 48.4°F9.1°C 41.2°F5.1°C 76% 12.0 mph NW19.3 kmh NW 21.0 mph33.8 kmh 29.69 in1005.4 mb 0.00 in0.0 mm 0.00 in0.0 mm 0.01 in0.3 mm
05:00 PM 48.6°F9.2°C 41.3°F5.2°C 76% 11.0 mph NW17.7 kmh NW 28.0 mph45.1 kmh 29.70 in1005.8 mb 0.00 in0.0 mm 0.00 in0.0 mm 0.01 in0.3 mm
05:15 PM 48.2°F9.0°C 41.7°F5.4°C 78% 8.0 mph NW12.9 kmh NW 19.0 mph30.6 kmh 29.70 in1005.8 mb 0.00 in0.0 mm 0.00 in0.0 mm 0.01 in0.3 mm
05:30 PM 48.0°F8.9°C 41.8°F5.4°C 79% 10.0 mph NW16.1 kmh NW 21.0 mph33.8 kmh 29.71 in1006.1 mb 0.00 in0.0 mm 0.00 in0.0 mm 0.01 in0.3 mm
05:45 PM 48.2°F9.0°C 41.3°F5.2°C 77% 11.0 mph NW17.7 kmh NW 20.0 mph32.2 kmh 29.72 in1006.4 mb 0.00 in0.0 mm 0.00 in0.0 mm 0.01 in0.3 mm
06:00 PM 48.2°F9.0°C 41.0°F5.0°C 76% 10.0 mph NW16.1 kmh NW 22.0 mph35.4 kmh 29.72 in1006.4 mb 0.00 in0.0 mm 0.00 in0.0 mm 0.01 in0.3 mm
06:15 PM 48.0°F8.9°C 41.2°F5.1°C 77% 10.0 mph NW16.1 kmh NW 20.0 mph32.2 kmh 29.73 in1006.8 mb 0.00 in0.0 mm 0.00 in0.0 mm 0.01 in0.3 mm
06:30 PM 48.2°F9.0°C 41.7°F5.4°C 78% 10.0 mph NW16.1 kmh NW 22.0 mph35.4 kmh 29.73 in1006.8 mb 0.00 in0.0 mm 0.00 in0.0 mm 0.01 in0.3 mm
06:45 PM 48.0°F8.9°C 41.5°F5.3°C 78% 8.0 mph NW12.9 kmh NW 17.0 mph27.4 kmh 29.74 in1007.1 mb 0.00 in0.0 mm 0.00 in0.0 mm 0.01 in0.3 mm
07:00 PM 48.0°F8.9°C 41.2°F5.1°C 77% 10.0 mph NW16.1 kmh NW 19.0 mph30.6 kmh 29.75 in1007.5 mb 0.00 in0.0 mm 0.00 in0.0 mm 0.01 in0.3 mm
07:15 PM 48.0°F8.9°C 41.2°F5.1°C 77% 10.0 mph NW16.1 kmh NW 28.0 mph45.1 kmh 29.75 in1007.5 mb 0.00 in0.0 mm 0.00 in0.0 mm 0.01 in0.3 mm
07:30 PM 48.4°F9.1°C 41.8°F5.4°C 78% 9.0 mph NW14.5 kmh NW 21.0 mph33.8 kmh 29.76 in1007.8 mb 0.00 in0.0 mm 0.00 in0.0 mm 0.01 in0.3 mm
07:45 PM 48.4°F9.1°C 41.2°F5.1°C 76% 8.0 mph NW12.9 kmh NW 20.0 mph32.2 kmh 29.76 in1007.8 mb 0.00 in0.0 mm 0.00 in0.0 mm 0.01 in0.3 mm
08:00 PM 48.2°F9.0°C 41.3°F5.2°C 77% 10.0 mph NW16.1 kmh NW 23.0 mph37.0 kmh 29.77 in1008.1 mb 0.00 in0.0 mm 0.00 in0.0 mm 0.01 in0.3 mm
08:15 PM 48.4°F9.1°C 41.2°F5.1°C 76% 10.0 mph NW16.1 kmh NW 18.0 mph29.0 kmh 29.77 in1008.1 mb 0.00 in0.0 mm 0.00 in0.0 mm 0.01 in0.3 mm
08:30 PM 48.4°F9.1°C 40.8°F4.9°C 75% 11.0 mph NW17.7 kmh NW 25.0 mph40.2 kmh 29.78 in1008.5 mb 0.00 in0.0 mm 0.00 in0.0 mm 0.01 in0.3 mm
08:45 PM 48.4°F9.1°C 40.5°F4.7°C 74% 11.0 mph NW17.7 kmh NW 21.0 mph33.8 kmh 29.78 in1008.5 mb 0.00 in0.0 mm 0.00 in0.0 mm 0.01 in0.3 mm
09:00 PM 48.4°F9.1°C 40.8°F4.9°C 75% 9.0 mph NW14.5 kmh NW 21.0 mph33.8 kmh 29.79 in1008.8 mb 0.00 in0.0 mm 0.00 in0.0 mm 0.01 in0.3 mm
09:15 PM 48.6°F9.2°C 40.6°F4.8°C 74% 9.0 mph NW14.5 kmh NW 21.0 mph33.8 kmh 29.79 in1008.8 mb 0.00 in0.0 mm 0.00 in0.0 mm 0.01 in0.3 mm
09:30 PM 48.6°F9.2°C 41.0°F5.0°C 75% 9.0 mph NW14.5 kmh NW 21.0 mph33.8 kmh 29.80 in1009.1 mb 0.00 in0.0 mm 0.00 in0.0 mm 0.01 in0.3 mm
09:45 PM 48.6°F9.2°C 40.3°F4.6°C 73% 10.0 mph NW16.1 kmh NW 21.0 mph33.8 kmh 29.80 in1009.1 mb 0.00 in0.0 mm 0.00 in0.0 mm 0.01 in0.3 mm
10:00 PM 48.4°F9.1°C 40.8°F4.9°C 75% 10.0 mph NW16.1 kmh NW 18.0 mph29.0 kmh 29.80 in1009.1 mb 0.00 in0.0 mm 0.00 in0.0 mm 0.01 in0.3 mm
10:15 PM 48.4°F9.1°C 40.8°F4.9°C 75% 8.0 mph NW12.9 kmh NW 15.0 mph24.1 kmh 29.81 in1009.5 mb 0.00 in0.0 mm 0.00 in0.0 mm 0.01 in0.3 mm
10:30 PM 48.4°F9.1°C 40.8°F4.9°C 75% 8.0 mph NW12.9 kmh NW 14.0 mph22.5 kmh 29.81 in1009.5 mb 0.00 in0.0 mm 0.00 in0.0 mm 0.01 in0.3 mm
10:45 PM 48.4°F9.1°C 41.2°F5.1°C 76% 7.0 mph NW11.3 kmh NW 14.0 mph22.5 kmh 29.81 in1009.5 mb 0.00 in0.0 mm 0.00 in0.0 mm 0.01 in0.3 mm
11:00 PM 48.4°F9.1°C 40.8°F4.9°C 75% 7.0 mph NW11.3 kmh NW 14.0 mph22.5 kmh 29.82 in1009.8 mb 0.00 in0.0 mm 0.00 in0.0 mm 0.01 in0.3 mm
11:15 PM 48.2°F9.0°C 41.3°F5.2°C 77% 8.0 mph NW12.9 kmh NW 16.0 mph25.7 kmh 29.82 in1009.8 mb 0.00 in0.0 mm 0.00 in0.0 mm 0.01 in0.3 mm
11:30 PM 48.0°F8.9°C 41.2°F5.1°C 77% 7.0 mph NW11.3 kmh NW 18.0 mph29.0 kmh 29.82 in1009.8 mb 0.00 in0.0 mm 0.00 in0.0 mm 0.01 in0.3 mm
11:45 PM 48.0°F8.9°C 41.2°F5.1°C 77% 6.0 mph NNW9.7 kmh NNW 11.0 mph17.7 kmh 29.83 in1010.2 mb 0.00 in0.0 mm 0.00 in0.0 mm 0.01 in0.3 mm